Huvudsida
METAR-TAF:

METAR-TAF

Flygplatser :

Mariehamns flygplats

Mariehamn, Finland

latitud: 60-07N, longitud: 019-54E, höjd: 6 m

Aktuellt väderrapport

Denna rapport gjordes för 36 minuter sedan, klockan 18:20 UTC
Vind 12 kt från nord/nordväst i byarna ända upp till 22 kt, varierande mellan nordväst och nord/nordost
Temperatur 5°C
Fuktighet 81%
Tryck 987 hPa
Sikt 10 km eller mer
Brutna moln på en höjd av 2400 ft
lätta regnskurar

METAR: EFMA 231820Z 34012G22KT 320V020 9999 -SHRA BKN024 05/02 Q0987

Tid: 21:56 (18:56 UTC)

Väderprognos

Denna rapport gjordes för 1 timme och 29 minuter sedan, klockan 17:27 UTC
Prognos gäller från 23 kl. 18 UTC till 24 kl. 03 UTC
Vind 12 kt från nord/nordväst
Sikt 10 km eller mer
Brutna moln på en höjd av 2000 ft
Temporärt
från 23 kl. 18 UTC till 23 kl. 24 UTC
Sikt: 6000 m
Brutna moln på en höjd av 3000 ft, Cumulonimbus.
regnskurar

TAF: EFMA 231727Z 2318/2403 34012KT 9999 BKN020 TEMPO 2318/2324 6000 SHRA BKN030CB

Aktuella väderrapporter och prognoser från 4000 flygplatser (METAR- och TAF-rapporter).

De tillgängliga stationerna syns som gula och röda prickar på kartan.

För musen över prickarna för att se namnen på stationerna.

Klicka sedan för att få väderrapporter och prognoser.

För att ändra kartan: Klicka på de gröna knapparna med ett svart kors på för att zooma in; den gröna knappen med ett streck på för att zooma ut; eller på de gröna pilarna för angränsande kartor.


METAR-TAF: